Time;durP1;ratioP1;P1;durP2;ratioP2;P2;SDS_P1;SDS_P2;PMS_P1;PMS_P2;Temp;Humidity;BMP_temperature;BMP_pressure;BME280_temperature;BME280_humidity;BME280_pressure;Samples;Min_cycle;Max_cycle;Signal;HPM_P1;HPM_P2
2021/04/02 00:01:28;;;;;;;28.88;16.80;;;;;;;8.51;57.35;99572.78;5052298;28;20075;-48
2021/04/02 00:03:53;;;;;;;27.30;15.77;;;;;;;8.66;57.35;99572.66;5052081;28;20020;-50
2021/04/02 00:06:19;;;;;;;27.27;15.90;;;;;;;8.44;57.60;99563.97;5052215;28;20029;-50
2021/04/02 00:08:44;;;;;;;29.10;15.48;;;;;;;8.47;57.59;99571.53;5051635;28;20124;-48
2021/04/02 00:11:10;;;;;;;29.80;15.73;;;;;;;8.44;58.11;99567.44;5052280;28;20021;-49
2021/04/02 00:13:40;;;;;;;27.30;15.23;;;;;;;8.50;57.71;99568.50;5052063;28;20384;-49
2021/04/02 00:16:06;;;;;;;30.25;15.60;;;;;;;8.52;57.64;99561.97;5052025;28;20032;-49
2021/04/02 00:18:32;;;;;;;28.48;15.63;;;;;;;8.57;57.24;99556.91;5051799;28;20017;-48
2021/04/02 00:20:59;;;;;;;26.67;15.77;;;;;;;8.57;57.09;99550.81;5051791;28;20511;-48
2021/04/02 00:23:24;;;;;;;28.67;15.98;;;;;;;8.55;57.46;99553.66;5051170;28;20070;-52
2021/04/02 00:25:50;;;;;;;32.58;16.85;;;;;;;8.47;58.36;99558.28;5050140;28;20606;-51
2021/04/02 00:28:15;;;;;;;28.08;15.85;;;;;;;8.41;58.04;99550.09;5051300;28;20084;-49
2021/04/02 00:30:43;;;;;;;29.38;16.55;;;;;;;8.31;58.55;99552.22;5051855;28;20025;-49
2021/04/02 00:33:09;;;;;;;32.50;17.35;;;;;;;8.20;58.49;99540.31;5051750;28;20487;-48
2021/04/02 00:35:35;;;;;;;27.90;17.27;;;;;;;8.30;58.42;99552.41;5051885;28;20025;-48
2021/04/02 00:38:02;;;;;;;31.88;16.73;;;;;;;8.18;58.84;99546.81;5051612;28;20021;-48
2021/04/02 00:40:29;;;;;;;28.80;16.13;;;;;;;8.00;58.86;99547.31;5050347;28;20029;-49
2021/04/02 00:42:55;;;;;;;28.23;16.55;;;;;;;8.12;59.53;99542.28;5050963;28;20174;-49
2021/04/02 00:45:20;;;;;;;30.27;16.33;;;;;;;8.10;58.43;99539.03;5051338;28;20473;-47
2021/04/02 00:47:49;;;;;;;37.72;16.50;;;;;;;8.08;59.08;99541.84;5051307;28;20100;-47
2021/04/02 00:50:41;;;;;;;29.40;16.60;;;;;;;8.10;59.53;99541.66;5051538;28;20477;-49
2021/04/02 00:53:07;;;;;;;27.67;16.08;;;;;;;8.09;58.82;99540.84;5051435;28;20055;-48
2021/04/02 00:55:32;;;;;;;28.67;16.13;;;;;;;7.96;59.83;99533.63;5051475;28;20029;-50
2021/04/02 00:57:58;;;;;;;30.05;16.98;;;;;;;8.02;58.47;99540.78;5051151;28;20029;-48
2021/04/02 01:00:25;;;;;;;28.75;16.60;;;;;;;7.95;58.22;99542.56;5051182;28;20028;-47
2021/04/02 01:02:50;;;;;;;29.30;15.90;;;;;;;8.08;59.28;99533.09;5050662;28;20145;-48
2021/04/02 01:05:18;;;;;;;29.17;15.88;;;;;;;8.12;58.65;99529.84;5049873;28;20132;-48
2021/04/02 01:07:52;;;;;;;29.90;15.57;;;;;;;7.99;58.68;99527.09;5050691;28;20048;-48
2021/04/02 01:10:18;;;;;;;32.85;16.33;;;;;;;8.10;59.19;99518.63;5051018;28;20025;-48
2021/04/02 01:12:44;;;;;;;32.85;17.00;;;;;;;8.04;58.98;99514.09;5051019;28;20090;-49
2021/04/02 01:15:17;;;;;;;29.90;16.00;;;;;;;7.87;59.87;99518.06;5050917;28;20135;-47
2021/04/02 01:17:43;;;;;;;34.38;16.60;;;;;;;7.63;59.56;99477.69;5050532;28;20036;-50
2021/04/02 01:20:08;;;;;;;29.33;16.42;;;;;;;7.77;58.82;99513.06;5051108;28;20029;-48
2021/04/02 01:22:34;;;;;;;34.13;17.00;;;;;;;7.66;59.62;99505.66;5030101;28;20033;-48
2021/04/02 01:25:14;;;;;;;28.55;17.13;;;;;;;7.61;60.13;99504.34;5030032;28;20052;-48
2021/04/02 01:28:00;;;;;;;32.67;17.90;;;;;;;7.57;60.59;99502.28;5031054;28;20036;-48
2021/04/02 01:30:25;;;;;;;33.53;18.20;;;;;;;7.44;60.16;99505.63;5030096;28;20390;-51
2021/04/02 01:32:51;;;;;;;30.25;16.70;;;;;;;7.37;60.57;99502.94;5029824;28;20066;-48
2021/04/02 01:35:23;;;;;;;32.55;17.30;;;;;;;7.55;60.26;99494.53;5033588;28;20041;-49
2021/04/02 01:37:56;;;;;;;30.95;16.83;;;;;;;7.52;61.88;99499.38;5050746;28;20032;-49
2021/04/02 01:40:23;;;;;;;29.20;15.98;;;;;;;7.49;60.82;99497.94;5050772;28;20716;-48
2021/04/02 01:42:48;;;;;;;26.50;15.85;;;;;;;7.31;60.00;99481.66;5049667;28;20028;-49
2021/04/02 01:45:15;;;;;;;28.40;16.00;;;;;;;7.62;59.78;99487.47;5049488;28;20025;-47
2021/04/02 01:47:41;;;;;;;31.55;16.42;;;;;;;7.39;59.87;99482.38;5049564;28;20036;-48
2021/04/02 01:50:08;;;;;;;31.65;16.23;;;;;;;7.51;60.10;99485.34;5051195;28;20033;-50
2021/04/02 01:52:34;;;;;;;29.05;16.15;;;;;;;7.39;59.43;99477.09;5050333;28;20021;-49
2021/04/02 01:54:59;;;;;;;30.33;15.98;;;;;;;7.55;59.79;99472.53;5049224;28;20437;-51
2021/04/02 01:57:25;;;;;;;27.45;15.65;;;;;;;7.47;59.42;99468.19;5049190;28;20424;-50
2021/04/02 01:59:50;;;;;;;28.92;16.45;;;;;;;7.32;58.77;99465.59;5032523;28;20098;-48
2021/04/02 02:02:16;;;;;;;27.42;16.52;;;;;;;7.27;59.13;99465.34;5032643;28;20029;-51
2021/04/02 02:04:42;;;;;;;28.88;16.10;;;;;;;7.14;60.77;99457.25;5032387;28;20465;-48
2021/04/02 02:07:07;;;;;;;28.95;16.42;;;;;;;7.21;60.20;99448.38;5049089;28;20043;-48
2021/04/02 02:09:38;;;;;;;33.83;16.40;;;;;;;7.30;60.78;99456.22;5032501;28;20491;-48
2021/04/02 02:12:06;;;;;;;36.30;18.17;;;;;;;7.24;60.43;99460.44;5048861;28;20064;-49
2021/04/02 02:14:32;;;;;;;37.42;19.58;;;;;;;7.26;60.04;99452.31;5032174;28;20067;-50
2021/04/02 02:16:59;;;;;;;47.83;24.38;;;;;;;7.13;60.73;99453.81;5049947;28;20086;-50
2021/04/02 02:19:26;;;;;;;39.47;20.33;;;;;;;7.09;61.12;99449.09;5049909;28;20026;-49
2021/04/02 02:21:51;;;;;;;34.00;17.15;;;;;;;7.08;61.24;99447.44;5049989;28;20021;-50
2021/04/02 02:24:17;;;;;;;33.63;17.38;;;;;;;7.11;61.35;99455.00;5048176;28;20481;-50
2021/04/02 02:26:43;;;;;;;35.53;16.58;;;;;;;7.17;60.63;99439.19;5048785;28;20520;-49
2021/04/02 02:29:09;;;;;;;29.73;16.98;;;;;;;7.22;60.67;99438.63;5048917;28;20041;-48
2021/04/02 02:31:34;;;;;;;35.17;16.92;;;;;;;7.18;59.91;99445.31;5050138;28;20037;-48
2021/04/02 02:34:01;;;;;;;39.88;19.13;;;;;;;7.30;59.99;99443.78;5049060;28;20036;-48
2021/04/02 02:36:27;;;;;;;31.30;18.00;;;;;;;7.27;60.29;99448.66;5049864;28;20071;-49
2021/04/02 02:38:53;;;;;;;36.40;18.38;;;;;;;7.20;60.18;99445.94;5049825;28;20140;-52
2021/04/02 02:41:18;;;;;;;35.42;17.60;;;;;;;7.12;60.42;99446.91;5031616;28;20025;-49
2021/04/02 02:43:48;;;;;;;30.02;16.75;;;;;;;7.14;59.86;99444.03;5031677;28;20071;-48
2021/04/02 02:46:13;;;;;;;29.65;16.35;;;;;;;7.11;60.50;99445.25;5048234;28;20039;-48
2021/04/02 02:48:46;;;;;;;36.65;18.52;;;;;;;7.01;61.54;99452.69;5049155;28;20033;-51
2021/04/02 02:51:11;;;;;;;30.75;17.10;;;;;;;6.91;60.25;99431.81;5032657;28;20124;-49
2021/04/02 02:53:37;;;;;;;31.63;16.75;;;;;;;6.77;61.11;99441.41;5031527;28;20025;-51
2021/04/02 02:56:02;;;;;;;29.38;15.35;;;;;;;6.90;61.28;99440.75;5031163;28;20029;-50
2021/04/02 02:58:28;;;;;;;31.40;16.30;;;;;;;6.74;60.16;99441.81;5048052;28;20029;-51
2021/04/02 03:00:53;;;;;;;33.90;17.23;;;;;;;6.44;61.43;99438.38;5049222;28;20068;-52
2021/04/02 03:03:19;;;;;;;29.88;16.10;;;;;;;6.55;61.92;99440.56;5031417;28;20028;-52
2021/04/02 03:05:49;;;;;;;31.98;15.48;;;;;;;6.42;61.44;99437.75;5048141;28;20040;-48
2021/04/02 03:08:17;;;;;;;34.55;16.90;;;;;;;6.56;63.16;99438.72;5031544;28;20428;-47
2021/04/02 03:10:42;;;;;;;35.25;16.33;;;;;;;6.50;62.24;99435.00;5048002;28;20025;-48
2021/04/02 03:13:08;;;;;;;36.72;16.27;;;;;;;6.49;63.54;99435.97;5047714;28;20063;-51
2021/04/02 03:15:34;;;;;;;29.70;16.02;;;;;;;6.62;62.20;99430.03;5030994;28;20025;-49
2021/04/02 03:18:04;;;;;;;27.92;15.63;;;;;;;6.54;62.32;99435.44;5048959;28;20571;-49
2021/04/02 03:20:31;;;;;;;30.30;15.68;;;;;;;6.49;62.38;99424.59;5048141;28;20029;-49
2021/04/02 03:22:57;;;;;;;29.88;16.65;;;;;;;6.33;62.93;99425.63;5047598;28;20024;-47
2021/04/02 03:25:23;;;;;;;30.92;16.52;;;;;;;6.26;62.57;99428.16;5031122;28;20028;-48
2021/04/02 03:27:49;;;;;;;34.70;15.98;;;;;;;6.16;63.08;99425.81;5047650;28;20032;-49
2021/04/02 03:30:27;;;;;;;33.13;16.45;;;;;;;6.14;63.31;99425.16;5048124;28;20028;-48
2021/04/02 03:33:12;;;;;;;32.08;15.55;;;;;;;6.05;63.96;99423.63;5040735;28;20037;-48
2021/04/02 03:35:37;;;;;;;33.97;16.40;;;;;;;6.00;63.59;99421.53;5031411;28;20374;-50
2021/04/02 03:38:03;;;;;;;38.50;16.80;;;;;;;5.86;64.26;99417.84;5029529;28;20029;-49
2021/04/02 03:40:29;;;;;;;32.80;17.15;;;;;;;5.91;63.71;99413.84;5027679;28;20025;-51
2021/04/02 03:42:56;;;;;;;29.63;16.45;;;;;;;6.29;61.07;99411.97;5011337;28;20462;-50
2021/04/02 03:45:22;;;;;;;33.15;15.85;;;;;;;6.17;62.37;99418.69;5027974;28;20044;-49
2021/04/02 03:47:48;;;;;;;32.65;16.23;;;;;;;6.04;62.69;99414.88;5010455;28;20527;-50
2021/04/02 03:50:14;;;;;;;30.17;15.70;;;;;;;5.89;62.10;99411.38;5026856;28;20175;-48
2021/04/02 03:52:44;;;;;;;39.85;16.15;;;;;;;5.87;61.92;99414.19;5027393;28;20079;-49
2021/04/02 03:55:12;;;;;;;;;;;;;;;5.79;62.34;99416.94;5028240;28;20428;-50
2021/04/02 03:57:37;;;;;;;56.83;27.58;;;;;;;5.60;63.47;99404.25;5027424;28;19940;-49
2021/04/02 04:00:08;;;;;;;98.80;44.53;;;;;;;5.65;63.01;99413.28;5027541;28;20536;-48
2021/04/02 04:02:33;;;;;;;66.95;33.03;;;;;;;5.63;63.31;99414.44;5040143;28;20388;-51
2021/04/02 04:04:59;;;;;;;98.68;43.90;;;;;;;5.79;62.45;99421.41;5013169;28;20033;-37
2021/04/02 04:07:26;;;;;;;39.22;19.00;;;;;;;6.08;61.91;99423.25;5011959;28;20637;-38
2021/04/02 04:09:51;;;;;;;34.78;16.95;;;;;;;5.69;62.58;99416.34;5048083;28;20029;-38
2021/04/02 04:12:17;;;;;;;32.03;15.80;;;;;;;5.58;62.89;99414.13;5030181;28;20036;-38
2021/04/02 04:14:42;;;;;;;32.83;15.18;;;;;;;5.90;62.25;99414.84;5030289;28;20021;-38
2021/04/02 04:17:08;;;;;;;43.28;17.55;;;;;;;5.83;62.86;99420.03;5049295;28;20030;-37
2021/04/02 04:19:33;;;;;;;34.53;17.20;;;;;;;5.81;62.91;99420.22;5050155;28;20048;-37
2021/04/02 04:21:58;;;;;;;38.78;16.88;;;;;;;6.02;62.62;99424.81;5033764;28;20476;-42
2021/04/02 04:24:25;;;;;;;38.55;16.98;;;;;;;6.06;62.44;99425.28;5050375;28;20036;-37
2021/04/02 04:26:52;;;;;;;36.42;19.08;;;;;;;7.19;61.49;99415.19;5050274;28;20025;-38
2021/04/02 04:29:22;;;;;;;37.50;17.13;;;;;;;6.93;59.90;99413.09;5051691;28;20097;-37
2021/04/02 04:31:47;;;;;;;;;;;;;;;6.86;60.34;99413.03;5051935;28;20059;-37
2021/04/02 04:34:13;;;;;;;39.85;18.85;;;;;;;6.88;60.14;99418.16;5049599;28;20416;-37
2021/04/02 04:36:38;;;;;;;46.85;22.92;;;;;;;6.95;60.08;99419.00;5033511;28;20124;-37
2021/04/02 04:39:05;;;;;;;50.55;20.58;;;;;;;7.08;59.96;99408.56;5049951;28;20029;-37
2021/04/02 04:41:30;;;;;;;75.40;33.28;;;;;;;7.42;59.87;99422.91;5051408;28;20640;-39
2021/04/02 04:43:55;;;;;;;73.30;36.97;;;;;;;7.54;59.62;99418.75;5051324;28;20036;-38
2021/04/02 04:46:21;;;;;;;76.18;33.33;;;;;;;8.14;58.29;99418.34;5048089;28;20441;-37
2021/04/02 04:48:47;;;;;;;63.63;30.38;;;;;;;8.44;58.09;99413.63;5035332;28;20079;-36
2021/04/02 04:51:15;;;;;;;52.38;23.38;;;;;;;8.78;57.07;99410.09;5030165;28;20025;-38
2021/04/02 04:53:40;;;;;;;51.25;22.48;;;;;;;9.79;55.59;99417.13;5031405;28;20068;-37
2021/04/02 04:56:06;;;;;;;51.70;21.33;;;;;;;10.40;53.16;99415.19;5013706;28;20025;-37
2021/04/02 04:58:33;;;;;;;66.45;30.27;;;;;;;11.00;50.21;99403.41;5041935;28;20039;-37
2021/04/02 05:01:01;;;;;;;54.85;29.08;;;;;;;11.67;47.88;99419.72;5046425;28;20551;-37
2021/04/02 05:03:27;;;;;;;50.85;25.65;;;;;;;12.10;46.84;99416.28;5030427;28;20036;-37
2021/04/02 05:05:58;;;;;;;28.15;14.57;;;;;;;12.41;45.63;99423.31;5031669;28;20021;-37
2021/04/02 05:08:45;;;;;;;25.70;13.00;;;;;;;12.35;45.57;99418.88;5014174;28;20068;-38
2021/04/02 05:11:13;;;;;;;26.58;13.00;;;;;;;12.94;43.91;99423.69;5031549;28;20065;-37
2021/04/02 05:13:39;;;;;;;36.40;13.77;;;;;;;12.91;43.58;99416.97;5029917;28;20033;-37
2021/04/02 05:16:05;;;;;;;24.88;13.10;;;;;;;13.17;44.26;99417.59;5029829;28;20155;-37
2021/04/02 05:18:31;;;;;;;24.63;12.30;;;;;;;13.59;41.89;99422.94;5030422;28;20405;-37
2021/04/02 05:20:56;;;;;;;28.33;12.38;;;;;;;13.63;42.30;99416.91;5030346;28;20017;-48
2021/04/02 05:23:22;;;;;;;21.00;12.02;;;;;;;13.95;41.22;99419.22;5050567;28;20481;-38
2021/04/02 05:25:47;;;;;;;22.65;11.82;;;;;;;13.96;40.96;99415.53;5050964;28;20067;-38
2021/04/02 05:28:13;;;;;;;18.42;11.23;;;;;;;14.08;40.70;99405.63;5049897;28;20025;-38
2021/04/02 05:30:38;;;;;;;38.05;23.55;;;;;;;14.55;39.59;99409.25;5050701;28;20025;-50
2021/04/02 05:33:04;;;;;;;25.27;15.48;;;;;;;15.13;38.44;99397.50;5051096;28;20079;-49
2021/04/02 05:35:30;;;;;;;26.00;12.38;;;;;;;15.22;38.21;99404.09;5049441;28;20036;-53
2021/04/02 05:37:56;;;;;;;20.60;12.00;;;;;;;16.02;37.35;99393.28;5064505;28;20024;-38
2021/04/02 05:40:21;;;;;;;19.38;11.23;;;;;;;16.79;35.89;99399.56;5070876;28;20028;-38
2021/04/02 05:43:08;;;;;;;21.08;11.40;;;;;;;17.02;34.82;99395.81;5070774;28;20020;-38
2021/04/02 05:45:39;;;;;;;19.00;11.07;;;;;;;17.72;34.04;99385.88;5050038;28;20048;-38
2021/04/02 05:48:06;;;;;;;17.20;10.65;;;;;;;18.45;33.13;99400.53;5006030;28;20024;-45
2021/04/02 05:50:32;;;;;;;22.63;10.73;;;;;;;18.81;32.17;99396.13;5035219;28;20107;-38
2021/04/02 05:53:04;;;;;;;22.67;12.60;;;;;;;18.90;31.34;99391.00;5041262;28;20029;-37
2021/04/02 05:55:32;;;;;;;24.40;13.73;;;;;;;19.04;30.99;99381.34;5039028;28;20475;-52
2021/04/02 05:57:58;;;;;;;26.73;13.77;;;;;;;19.51;30.16;99380.28;5039146;28;20031;-52
2021/04/02 06:00:24;;;;;;;33.17;17.42;;;;;;;19.34;30.25;99377.84;5037605;28;20029;-52
2021/04/02 06:02:50;;;;;;;23.05;12.77;;;;;;;18.92;31.52;99376.19;5039197;28;20103;-51
2021/04/02 06:05:15;;;;;;;23.77;12.30;;;;;;;18.93;30.95;99383.19;5040729;28;20040;-38
2021/04/02 06:07:40;;;;;;;24.23;12.38;;;;;;;19.01;30.48;99383.75;5037499;28;20099;-38
2021/04/02 06:10:06;;;;;;;22.40;12.02;;;;;;;17.93;31.96;99377.94;5038191;28;20033;-39
2021/04/02 06:12:35;;;;;;;19.67;12.23;;;;;;;18.51;32.00;99373.38;5038855;28;20026;-39
2021/04/02 06:15:02;;;;;;;31.15;17.67;;;;;;;18.61;30.63;99372.59;5041609;28;20131;-39
2021/04/02 06:17:27;;;;;;;34.30;19.63;;;;;;;18.77;31.17;99368.03;5037839;28;20370;-39
2021/04/02 06:20:05;;;;;;;21.48;12.45;;;;;;;18.36;31.16;99363.34;5040124;28;20037;-51
2021/04/02 06:22:31;;;;;;;24.30;13.45;;;;;;;18.24;31.83;99373.53;5039666;28;20060;-53
2021/04/02 06:25:01;;;;;;;23.58;14.32;;;;;;;18.87;31.53;99370.00;5030252;28;20417;-52
2021/04/02 06:27:26;;;;;;;24.92;13.40;;;;;;;19.05;30.91;99366.75;5028488;28;20362;-52
2021/04/02 06:30:01;;;;;;;23.80;12.82;;;;;;;19.40;30.37;99362.47;5011777;28;20103;-51
2021/04/02 06:32:34;;;;;;;20.85;12.65;;;;;;;19.49;30.06;99365.41;5012732;28;20025;-51
2021/04/02 06:35:06;;;;;;;24.23;12.27;;;;;;;19.87;29.90;99365.91;5028852;28;20041;-51
2021/04/02 06:37:32;;;;;;;21.48;11.95;;;;;;;20.26;28.77;99363.38;5029261;28;20025;-52
2021/04/02 06:39:58;;;;;;;25.80;11.98;;;;;;;20.84;28.08;99367.41;5028938;28;20031;-52
2021/04/02 06:42:33;;;;;;;23.30;12.15;;;;;;;21.59;27.65;99363.59;5029491;28;20144;-52
2021/04/02 06:45:07;;;;;;;28.30;12.60;;;;;;;22.18;27.12;99367.84;5029251;28;20076;-53
2021/04/02 06:47:33;;;;;;;43.83;26.85;;;;;;;22.31;26.36;99368.25;5029229;28;20029;-52
2021/04/02 06:49:59;;;;;;;37.03;21.15;;;;;;;22.53;25.88;99365.78;5028703;28;20079;-51
2021/04/02 06:52:24;;;;;;;31.10;18.83;;;;;;;22.54;25.61;99362.00;5029172;28;20029;-52
2021/04/02 06:54:50;;;;;;;22.13;12.65;;;;;;;21.45;27.33;99369.66;5030812;28;20017;-51
2021/04/02 06:57:15;;;;;;;21.70;13.00;;;;;;;21.85;27.43;99375.78;5048699;28;20071;-52
2021/04/02 06:59:41;;;;;;;19.20;12.85;;;;;;;22.34;26.80;99368.47;5047810;28;20073;-50
2021/04/02 07:02:07;;;;;;;26.55;14.18;;;;;;;21.74;29.10;99378.88;5012788;28;20413;-53
2021/04/02 07:04:33;;;;;;;21.23;12.23;;;;;;;21.80;26.94;99370.44;5042312;28;20453;-51
2021/04/02 07:07:02;;;;;;;19.05;12.68;;;;;;;21.00;26.82;99365.41;5041406;28;20194;-50
2021/04/02 07:09:28;;;;;;;;;;;;;;;21.23;27.11;99367.41;5029433;28;20496;-51
2021/04/02 07:11:56;;;;;;;21.60;12.35;;;;;;;21.62;26.54;99363.81;5029095;28;19913;-52
2021/04/02 07:14:22;;;;;;;20.40;12.10;;;;;;;22.42;25.73;99372.44;5026958;28;20041;-51
2021/04/02 07:16:47;;;;;;;23.20;12.23;;;;;;;22.54;25.29;99372.84;5029894;28;20059;-49
2021/04/02 07:19:13;;;;;;;23.25;12.40;;;;;;;22.96;24.93;99368.44;5046539;28;20032;-49
2021/04/02 07:21:38;;;;;;;23.80;12.57;;;;;;;22.97;24.56;99361.91;5047638;28;20028;-52
2021/04/02 07:24:04;;;;;;;33.83;15.43;;;;;;;21.86;26.91;99363.88;5045993;28;20036;-53
2021/04/02 07:26:29;;;;;;;31.67;14.55;;;;;;;22.33;25.77;99360.63;5048244;28;20029;-51
2021/04/02 07:28:55;;;;;;;25.70;13.45;;;;;;;22.34;25.75;99362.25;5029591;28;20021;-50
2021/04/02 07:31:21;;;;;;;22.15;12.40;;;;;;;22.04;26.47;99356.06;5046404;28;20094;-51
2021/04/02 07:33:47;;;;;;;23.75;14.32;;;;;;;22.35;25.53;99356.56;5046123;28;20039;-52
2021/04/02 07:36:13;;;;;;;20.52;14.52;;;;;;;22.99;25.73;99353.47;5029559;28;20025;-51
2021/04/02 07:38:39;;;;;;;65.78;40.33;;;;;;;23.32;25.63;99358.94;5048146;28;20063;-51
2021/04/02 07:41:08;;;;;;;30.33;14.90;;;;;;;22.97;25.10;99347.53;5047736;28;20504;-50
2021/04/02 07:43:33;;;;;;;30.52;16.58;;;;;;;23.28;25.41;99353.28;5047824;28;20029;-50
2021/04/02 07:46:20;;;;;;;30.30;17.33;;;;;;;22.32;27.24;99350.91;5047515;28;20029;-50
2021/04/02 07:48:50;;;;;;;28.13;17.50;;;;;;;21.69;28.88;99349.97;5047263;28;20036;-50
2021/04/02 07:51:16;;;;;;;32.13;16.70;;;;;;;21.48;28.96;99352.88;5048984;28;20021;-51
2021/04/02 07:53:43;;;;;;;32.67;16.42;;;;;;;22.41;28.35;99346.47;5051614;28;20094;-52
2021/04/02 07:56:14;;;;;;;31.95;15.95;;;;;;;22.30;27.79;99342.25;5049655;28;20096;-51
2021/04/02 07:58:52;;;;;;;29.63;16.27;;;;;;;22.59;27.85;99344.84;5051258;28;20025;-51
2021/04/02 08:01:22;;;;;;;39.97;24.05;;;;;;;23.16;27.11;99342.91;5051692;28;20055;-50
2021/04/02 08:03:48;;;;;;;33.88;18.58;;;;;;;23.34;26.55;99337.72;5051475;28;20025;-53
2021/04/02 08:06:37;;;;;;;23.15;14.95;;;;;;;22.41;27.14;99341.03;5050974;28;20656;-51
2021/04/02 08:09:03;;;;;;;22.70;14.05;;;;;;;22.54;26.57;99340.31;5050927;28;20110;-53
2021/04/02 08:11:55;;;;;;;23.52;13.80;;;;;;;22.47;26.85;99334.44;5051569;28;20121;-52
2021/04/02 08:14:34;;;;;;;22.35;13.82;;;;;;;21.83;27.43;99323.00;5050975;28;20032;-49
2021/04/02 08:16:59;;;;;;;23.75;13.13;;;;;;;22.21;27.10;99326.59;5050920;28;20025;-51
2021/04/02 08:19:32;;;;;;;60.03;20.13;;;;;;;21.04;28.64;99317.78;5051372;28;20044;-52
2021/04/02 08:22:06;;;;;;;34.67;15.35;;;;;;;21.37;28.46;99313.44;5051152;28;20025;-50
2021/04/02 08:24:58;;;;;;;31.80;14.90;;;;;;;22.29;27.52;99316.25;5050923;28;20456;-51
2021/04/02 08:27:23;;;;;;;26.55;13.63;;;;;;;22.22;27.14;99311.97;5047578;28;20252;-51
2021/04/02 08:30:01;;;;;;;32.70;14.90;;;;;;;21.60;27.71;99302.94;5049602;28;20025;-53
2021/04/02 08:32:27;;;;;;;39.97;15.60;;;;;;;22.09;29.78;99309.97;5049635;28;20518;-52
2021/04/02 08:34:52;;;;;;;27.38;14.85;;;;;;;21.81;28.24;99304.31;5050427;28;20059;-52
2021/04/02 08:37:19;;;;;;;22.95;13.73;;;;;;;21.07;28.79;99296.38;5050192;28;20032;-52
2021/04/02 08:39:44;;;;;;;24.92;14.10;;;;;;;20.83;31.17;99292.81;5050534;28;20033;-52
2021/04/02 08:42:10;;;;;;;27.13;13.52;;;;;;;20.28;30.12;99290.94;5050048;28;20083;-51
2021/04/02 08:44:40;;;;;;;25.50;15.40;;;;;;;20.39;30.04;99293.59;5050319;28;20439;-50
2021/04/02 08:47:07;;;;;;;27.48;14.85;;;;;;;20.53;29.59;99297.28;5050170;28;20402;-54
2021/04/02 08:49:43;;;;;;;20.58;12.55;;;;;;;20.82;29.46;99293.88;5050328;28;20029;-52
2021/04/02 08:52:13;;;;;;;21.92;12.95;;;;;;;20.47;31.05;99282.22;5050763;28;20036;-50
2021/04/02 08:54:39;;;;;;;22.98;12.90;;;;;;;20.61;30.01;99285.09;5050206;28;20342;-52
2021/04/02 08:57:05;;;;;;;19.55;12.57;;;;;;;20.95;30.62;99271.59;5048845;28;20029;-52
2021/04/02 08:59:31;;;;;;;22.60;12.48;;;;;;;21.14;29.66;99290.63;5051181;28;20017;-50
2021/04/02 09:01:57;;;;;;;24.95;12.95;;;;;;;20.95;30.13;99282.41;5049504;28;20025;-52
2021/04/02 09:04:22;;;;;;;18.48;11.98;;;;;;;20.51;30.90;99275.94;5050628;28;20504;-50
2021/04/02 09:06:48;;;;;;;21.38;11.95;;;;;;;20.30;30.41;99272.56;5049559;28;20035;-52
2021/04/02 09:09:15;;;;;;;19.70;11.27;;;;;;;20.67;29.90;99275.88;5032562;28;20440;-51
2021/04/02 09:11:42;;;;;;;18.48;11.50;;;;;;;21.01;29.24;99270.47;5050616;28;20040;-53
2021/04/02 09:14:08;;;;;;;20.08;11.40;;;;;;;20.81;29.65;99266.03;5050704;28;20025;-52
2021/04/02 09:16:35;;;;;;;21.08;10.95;;;;;;;21.63;28.34;99257.16;5050560;28;20171;-53
2021/04/02 09:19:01;;;;;;;17.33;10.45;;;;;;;22.03;27.87;99259.66;5050865;28;20021;-50
2021/04/02 09:21:26;;;;;;;19.10;10.95;;;;;;;21.69;27.94;99251.69;5029520;28;20025;-51
2021/04/02 09:23:53;;;;;;;18.60;9.93;;;;;;;21.46;27.75;99256.81;5031110;28;20025;-52
2021/04/02 09:26:18;;;;;;;15.63;9.45;;;;;;;20.54;29.40;99258.34;5031210;28;20025;-52
2021/04/02 09:28:44;;;;;;;18.33;10.48;;;;;;;20.04;30.40;99252.19;5030729;28;20087;-52
2021/04/02 09:31:25;;;;;;;17.52;9.68;;;;;;;21.04;29.46;99250.16;5030221;28;20051;-53
2021/04/02 09:33:53;;;;;;;13.57;9.07;;;;;;;21.68;28.22;99253.56;5044860;28;20098;-53
2021/04/02 09:36:19;;;;;;;12.77;8.35;;;;;;;22.19;26.57;99257.53;5050143;28;20028;-51
2021/04/02 09:38:45;;;;;;;13.93;9.02;;;;;;;21.67;27.69;99249.28;5050584;28;20427;-51
2021/04/02 09:41:11;;;;;;;16.73;8.55;;;;;;;22.31;26.90;99249.00;5050096;28;20025;-52
2021/04/02 09:43:44;;;;;;;17.75;8.90;;;;;;;22.84;27.71;99246.00;5049169;28;20094;-52
2021/04/02 09:46:32;;;;;;;13.73;8.32;;;;;;;23.80;25.80;99248.09;5049060;28;20021;-50
2021/04/02 09:49:22;;;;;;;15.07;8.68;;;;;;;23.14;26.42;99239.28;5050194;28;20441;-52
2021/04/02 09:51:49;;;;;;;13.35;8.88;;;;;;;23.37;25.87;99223.13;5050357;28;20496;-50
2021/04/02 09:54:15;;;;;;;12.48;8.10;;;;;;;23.07;26.09;99229.94;5050285;28;20033;-51
2021/04/02 09:56:41;;;;;;;13.93;8.00;;;;;;;22.64;26.15;99226.28;5049974;28;20056;-49
2021/04/02 09:59:06;;;;;;;11.68;7.18;;;;;;;22.70;26.58;99223.47;5049910;28;20025;-51
2021/04/02 10:01:32;;;;;;;11.52;7.88;;;;;;;23.51;25.12;99225.84;5048973;28;20503;-52
2021/04/02 10:03:58;;;;;;;12.63;7.13;;;;;;;22.65;25.84;99217.00;5049811;28;20033;-51
2021/04/02 10:06:23;;;;;;;14.10;7.60;;;;;;;22.42;26.84;99209.81;5049825;28;20031;-48
2021/04/02 10:08:49;;;;;;;10.73;7.38;;;;;;;23.15;26.30;99208.34;5049074;28;20045;-53
2021/04/02 10:11:14;;;;;;;10.18;6.90;;;;;;;23.66;25.38;99211.94;5049837;28;20106;-50
2021/04/02 10:13:40;;;;;;;11.00;7.35;;;;;;;24.06;24.92;99189.69;5048929;28;20025;-52
2021/04/02 10:16:06;;;;;;;12.45;8.00;;;;;;;23.61;25.58;99179.50;5049734;28;20035;-51
2021/04/02 10:18:31;;;;;;;13.65;8.10;;;;;;;23.20;26.29;99191.16;5049860;28;20047;-50
2021/04/02 10:20:57;;;;;;;11.60;7.47;;;;;;;23.29;26.62;99191.25;5048728;28;20028;-54
2021/04/02 10:23:22;;;;;;;11.70;7.88;;;;;;;23.74;27.03;99184.09;5030351;28;20128;-49
2021/04/02 10:25:48;;;;;;;16.15;8.90;;;;;;;23.80;26.20;99173.97;5029954;28;20028;-52
2021/04/02 10:28:14;;;;;;;13.68;9.43;;;;;;;23.58;26.25;99171.94;5029786;28;20022;-50
2021/04/02 10:30:39;;;;;;;13.20;8.38;;;;;;;23.55;26.46;99167.94;5037696;28;20025;-49
2021/04/02 10:33:05;;;;;;;15.10;8.70;;;;;;;23.46;26.82;99163.53;5040709;28;20029;-50
2021/04/02 10:35:33;;;;;;;14.68;9.35;;;;;;;23.54;26.69;99154.66;5038970;28;20473;-53
2021/04/02 10:37:58;;;;;;;14.10;9.40;;;;;;;23.77;26.98;99159.03;5031260;28;20410;-52
2021/04/02 10:40:24;;;;;;;17.52;9.38;;;;;;;24.15;26.19;99152.50;5032360;28;20024;-49
2021/04/02 10:42:50;;;;;;;12.77;8.85;;;;;;;23.91;25.93;99147.34;5039117;28;20415;-50
2021/04/02 10:45:15;;;;;;;11.63;8.75;;;;;;;24.34;25.53;99142.25;5038723;28;20025;-51
2021/04/02 10:47:41;;;;;;;12.35;8.52;;;;;;;25.00;24.54;99130.81;5040545;28;20386;-38
2021/04/02 10:50:07;;;;;;;14.40;9.35;;;;;;;25.41;24.38;99146.00;5039023;28;20021;-50
2021/04/02 10:52:32;;;;;;;15.88;9.35;;;;;;;25.15;24.72;99141.28;5043662;28;20109;-48
2021/04/02 10:54:58;;;;;;;18.70;8.45;;;;;;;23.99;26.12;99133.06;5049271;28;20543;-52
2021/04/02 10:57:23;;;;;;;13.60;8.63;;;;;;;23.59;27.03;99139.06;5049250;28;20043;-49
2021/04/02 10:59:49;;;;;;;20.67;10.35;;;;;;;24.21;25.82;99134.97;5048338;28;20028;-50
2021/04/02 11:02:14;;;;;;;14.45;8.98;;;;;;;24.48;25.38;99130.50;5049566;28;20059;-51
2021/04/02 11:04:40;;;;;;;15.00;8.32;;;;;;;24.78;25.80;99131.66;5049291;28;20408;-52
2021/04/02 11:07:06;;;;;;;15.50;8.07;;;;;;;23.96;26.20;99120.06;5048936;28;20511;-49
2021/04/02 11:09:32;;;;;;;14.13;7.53;;;;;;;25.00;25.61;99119.09;5048697;28;20047;-53
2021/04/02 11:11:57;;;;;;;12.32;8.07;;;;;;;26.13;24.96;99122.06;5048860;28;20021;-50
2021/04/02 11:14:23;;;;;;;15.13;8.43;;;;;;;26.82;23.98;99110.22;5048916;28;20038;-49
2021/04/02 11:16:48;;;;;;;11.50;8.10;;;;;;;27.35;23.02;99108.06;5049038;28;20020;-52
2021/04/02 11:19:14;;;;;;;14.02;8.23;;;;;;;27.05;23.61;99102.56;5049044;28;20033;-50
2021/04/02 11:21:39;;;;;;;15.88;7.78;;;;;;;26.87;23.79;99101.84;5048868;28;20032;-52
2021/04/02 11:24:05;;;;;;;14.50;8.25;;;;;;;27.22;23.80;99100.88;5048926;28;20025;-51